createdAt,value
2017-12-19T00:01:54.968Z,15.97
2017-12-19T00:04:22.549Z,15.50
2017-12-19T00:06:50.211Z,16.00
2017-12-19T00:09:17.779Z,16.37
2017-12-19T00:11:45.336Z,14.40
2017-12-19T00:14:12.996Z,16.17
2017-12-19T00:16:40.544Z,15.63
2017-12-19T00:19:08.100Z,16.07
2017-12-19T00:21:35.750Z,15.90
2017-12-19T00:24:03.286Z,16.20
2017-12-19T00:26:31.275Z,16.77
2017-12-19T00:28:58.822Z,16.47
2017-12-19T00:31:26.451Z,16.07
2017-12-19T00:33:54.038Z,15.87
2017-12-19T00:36:21.578Z,16.73
2017-12-19T00:38:49.159Z,18.80
2017-12-19T00:41:16.753Z,19.07
2017-12-19T00:43:44.339Z,18.37
2017-12-19T00:46:11.956Z,17.47
2017-12-19T00:48:39.565Z,17.07
2017-12-19T00:51:07.157Z,17.00
2017-12-19T00:53:34.754Z,16.90
2017-12-19T00:56:02.795Z,18.03
2017-12-19T00:58:30.353Z,18.30
2017-12-19T01:00:57.939Z,17.30
2017-12-19T01:03:25.511Z,16.30
2017-12-19T01:05:53.112Z,18.57
2017-12-19T01:08:20.726Z,18.07
2017-12-19T01:10:48.286Z,18.37
2017-12-19T01:13:15.855Z,18.43
2017-12-19T01:15:43.384Z,18.07
2017-12-19T01:18:10.936Z,18.27
2017-12-19T01:20:38.561Z,18.40
2017-12-19T01:23:06.103Z,18.20
2017-12-19T01:25:34.184Z,19.17
2017-12-19T01:28:01.790Z,18.93
2017-12-19T01:30:29.884Z,18.37
2017-12-19T01:32:57.443Z,18.40
2017-12-19T01:35:24.994Z,18.87
2017-12-19T01:37:52.551Z,17.40
2017-12-19T01:40:20.090Z,18.63
2017-12-19T01:42:47.636Z,18.97
2017-12-19T01:45:15.283Z,19.67
2017-12-19T01:47:42.870Z,17.33
2017-12-19T01:50:10.408Z,17.60
2017-12-19T01:52:38.000Z,19.00
2017-12-19T01:55:05.582Z,18.87
2017-12-19T01:57:33.148Z,17.97
2017-12-19T02:00:00.730Z,16.93
2017-12-19T02:02:28.400Z,18.40
2017-12-19T02:04:56.384Z,19.90
2017-12-19T02:07:23.993Z,20.07
2017-12-19T02:09:51.541Z,18.87
2017-12-19T02:12:19.128Z,18.60
2017-12-19T02:14:46.715Z,18.00
2017-12-19T02:17:14.283Z,19.47
2017-12-19T02:19:41.853Z,18.43
2017-12-19T02:22:09.430Z,19.73
2017-12-19T02:24:36.988Z,18.50
2017-12-19T02:27:04.514Z,19.60
2017-12-19T02:29:32.085Z,20.20
2017-12-19T02:31:59.627Z,25.53
2017-12-19T02:34:27.607Z,23.33
2017-12-19T02:36:55.186Z,19.87
2017-12-19T02:39:22.721Z,19.77
2017-12-19T02:41:50.295Z,17.90
2017-12-19T02:44:17.872Z,18.47
2017-12-19T02:46:45.439Z,18.30
2017-12-19T02:49:12.980Z,18.47
2017-12-19T02:51:41.023Z,19.40
2017-12-19T02:54:08.586Z,20.13
2017-12-19T02:56:36.146Z,17.83
2017-12-19T02:59:03.812Z,19.43
2017-12-19T03:01:31.381Z,18.10
2017-12-19T03:03:59.412Z,18.33
2017-12-19T03:06:26.966Z,19.60
2017-12-19T03:08:54.538Z,18.33
2017-12-19T03:11:22.118Z,18.70
2017-12-19T03:13:49.739Z,18.97
2017-12-19T03:16:17.600Z,18.57
2017-12-19T03:18:45.162Z,17.50
2017-12-19T03:21:12.701Z,18.63
2017-12-19T03:23:40.348Z,17.87
2017-12-19T03:26:07.882Z,17.97
2017-12-19T03:28:35.704Z,16.60
2017-12-19T03:31:03.286Z,17.50
2017-12-19T03:33:31.159Z,16.17
2017-12-19T03:35:58.776Z,16.33
2017-12-19T03:38:26.328Z,17.80
2017-12-19T03:40:54.234Z,17.40
2017-12-19T03:43:21.770Z,18.33
2017-12-19T03:45:49.314Z,17.80
2017-12-19T03:48:16.948Z,18.43
2017-12-19T03:50:44.512Z,19.57
2017-12-19T03:53:12.074Z,18.07
2017-12-19T03:55:39.626Z,18.17
2017-12-19T03:58:07.172Z,19.20
2017-12-19T04:00:34.736Z,18.97
2017-12-19T04:03:02.292Z,18.53
2017-12-19T04:05:30.136Z,17.97
2017-12-19T04:07:57.682Z,18.10
2017-12-19T04:10:25.260Z,18.23
2017-12-19T04:12:52.814Z,17.87
2017-12-19T04:15:20.418Z,18.97
2017-12-19T04:17:47.987Z,16.67
2017-12-19T04:20:15.535Z,18.37
2017-12-19T04:22:43.424Z,17.80
2017-12-19T04:25:10.964Z,17.83
2017-12-19T04:27:38.504Z,19.17
2017-12-19T04:30:06.161Z,17.60
2017-12-19T04:32:33.673Z,17.97
2017-12-19T04:35:01.254Z,18.30
2017-12-19T04:37:28.889Z,18.10
2017-12-19T04:39:56.747Z,18.90
2017-12-19T04:42:24.380Z,18.47
2017-12-19T04:44:51.940Z,18.20
2017-12-19T04:47:19.533Z,19.17
2017-12-19T04:49:47.119Z,18.07
2017-12-19T04:52:14.715Z,18.47
2017-12-19T04:54:42.272Z,17.93
2017-12-19T04:57:09.871Z,18.43
2017-12-19T04:59:37.430Z,18.67
2017-12-19T05:02:04.963Z,17.97
2017-12-19T05:04:32.690Z,18.90
2017-12-19T05:07:00.249Z,18.63
2017-12-19T05:09:28.195Z,19.00
2017-12-19T05:11:55.754Z,18.57
2017-12-19T05:14:23.370Z,19.13
2017-12-19T05:16:50.903Z,18.40
2017-12-19T05:19:18.436Z,17.10
2017-12-19T05:21:46.056Z,18.20
2017-12-19T05:24:13.652Z,18.37
2017-12-19T05:26:41.522Z,17.77
2017-12-19T05:29:09.124Z,17.70
2017-12-19T05:31:36.817Z,18.37
2017-12-19T05:34:04.396Z,18.00
2017-12-19T05:36:32.040Z,17.70
2017-12-19T05:38:59.603Z,18.27
2017-12-19T05:41:27.159Z,18.80
2017-12-19T05:43:54.718Z,18.73
2017-12-19T05:46:22.304Z,19.43
2017-12-19T05:48:49.851Z,21.90
2017-12-19T05:51:17.440Z,17.93
2017-12-19T05:53:45.046Z,17.97
2017-12-19T05:56:12.748Z,17.17
2017-12-19T05:58:40.388Z,19.17
2017-12-19T06:01:08.014Z,17.20
2017-12-19T06:03:35.690Z,16.90
2017-12-19T06:06:03.260Z,17.40
2017-12-19T06:08:30.844Z,18.13
2017-12-19T06:10:58.399Z,18.43
2017-12-19T06:13:25.935Z,16.60
2017-12-19T06:15:53.575Z,17.67
2017-12-19T06:18:21.130Z,16.87
2017-12-19T06:20:48.953Z,18.30
2017-12-19T06:23:16.495Z,17.00
2017-12-19T06:25:44.939Z,17.17
2017-12-19T06:28:12.494Z,17.43
2017-12-19T06:30:40.062Z,18.67
2017-12-19T06:33:08.153Z,17.70
2017-12-19T06:35:35.732Z,17.87
2017-12-19T06:38:03.277Z,17.23
2017-12-19T06:40:30.991Z,17.80
2017-12-19T06:42:58.534Z,17.57
2017-12-19T06:45:26.364Z,17.90
2017-12-19T06:47:53.905Z,18.17
2017-12-19T06:50:21.444Z,17.93
2017-12-19T06:52:49.013Z,16.90
2017-12-19T06:55:16.556Z,18.40
2017-12-19T06:57:44.126Z,18.73
2017-12-19T07:00:11.767Z,17.13
2017-12-19T07:02:39.761Z,17.47
2017-12-19T07:05:07.310Z,17.57
2017-12-19T07:07:34.866Z,16.70
2017-12-19T07:10:02.387Z,16.27
2017-12-19T07:12:29.890Z,17.93
2017-12-19T07:14:57.425Z,17.13
2017-12-19T07:17:24.950Z,16.20
2017-12-19T07:19:54.109Z,17.27
2017-12-19T07:22:21.692Z,17.20
2017-12-19T07:24:49.236Z,16.57
2017-12-19T07:27:17.028Z,16.30
2017-12-19T07:29:44.552Z,18.20
2017-12-19T07:32:12.088Z,17.90
2017-12-19T07:34:39.606Z,17.80
2017-12-19T07:37:07.106Z,16.43
2017-12-19T07:39:35.420Z,17.07
2017-12-19T07:42:02.977Z,16.77
2017-12-19T07:44:30.826Z,17.00
2017-12-19T07:46:58.356Z,17.10
2017-12-19T07:49:25.909Z,17.20
2017-12-19T07:51:53.573Z,18.00
2017-12-19T07:54:21.121Z,16.67
2017-12-19T07:56:49.312Z,16.00
2017-12-19T07:59:16.852Z,16.70
2017-12-19T08:01:44.403Z,19.17
2017-12-19T08:04:11.993Z,18.77
2017-12-19T08:06:39.553Z,18.27
2017-12-19T08:09:07.108Z,18.00
2017-12-19T08:11:34.677Z,19.87
2017-12-19T08:14:02.235Z,18.60
2017-12-19T08:16:29.805Z,17.80
2017-12-19T08:18:57.376Z,18.47
2017-12-19T08:21:24.985Z,18.23
2017-12-19T08:23:52.528Z,18.40
2017-12-19T08:26:20.459Z,18.33
2017-12-19T08:28:48.004Z,17.77
2017-12-19T08:31:15.545Z,17.77
2017-12-19T08:33:43.110Z,17.73
2017-12-19T08:36:10.655Z,17.83
2017-12-19T08:38:38.236Z,17.70
2017-12-19T08:41:05.770Z,17.87
2017-12-19T08:43:33.334Z,17.63
2017-12-19T08:46:00.916Z,17.37
2017-12-19T08:48:28.460Z,18.30
2017-12-19T08:50:56.270Z,16.67
2017-12-19T08:53:23.823Z,19.13
2017-12-19T08:55:51.363Z,17.30
2017-12-19T08:58:18.933Z,16.30
2017-12-19T09:00:46.507Z,16.63
2017-12-19T09:03:14.078Z,17.37
2017-12-19T09:05:41.680Z,16.20
2017-12-19T09:08:09.263Z,16.77
2017-12-19T09:10:36.827Z,17.53
2017-12-19T09:13:04.379Z,17.10
2017-12-19T09:15:31.981Z,17.97
2017-12-19T09:17:59.588Z,17.80
2017-12-19T09:20:27.143Z,18.20
2017-12-19T09:22:54.766Z,18.40
2017-12-19T09:25:22.412Z,17.90
2017-12-19T09:27:50.258Z,16.83
2017-12-19T09:30:17.816Z,18.20
2017-12-19T09:32:45.370Z,16.90
2017-12-19T09:35:12.893Z,16.33
2017-12-19T09:37:40.439Z,17.73
2017-12-19T09:40:08.364Z,16.10
2017-12-19T09:42:35.944Z,15.80
2017-12-19T09:45:03.481Z,16.20
2017-12-19T09:47:31.074Z,16.03
2017-12-19T09:49:58.886Z,17.43
2017-12-19T09:52:26.496Z,17.17
2017-12-19T09:54:54.039Z,17.20
2017-12-19T09:57:21.865Z,16.30
2017-12-19T09:59:49.430Z,15.93
2017-12-19T10:02:16.988Z,16.53
2017-12-19T10:04:44.598Z,17.00
2017-12-19T10:07:12.154Z,15.03
2017-12-19T10:09:39.770Z,15.67
2017-12-19T10:12:07.530Z,15.37
2017-12-19T10:14:35.505Z,15.63
2017-12-19T10:17:03.058Z,14.50
2017-12-19T10:19:30.620Z,13.87
2017-12-19T10:21:58.184Z,14.67
2017-12-19T10:24:25.737Z,15.13
2017-12-19T10:26:53.296Z,14.20
2017-12-19T10:29:20.850Z,13.83
2017-12-19T10:31:48.482Z,14.50
2017-12-19T10:34:16.027Z,13.90
2017-12-19T10:36:43.584Z,14.20
2017-12-19T10:39:11.140Z,13.00
2017-12-19T10:41:38.680Z,12.70
2017-12-19T10:44:06.229Z,13.50
2017-12-19T10:46:33.764Z,13.37
2017-12-19T10:49:01.366Z,12.30
2017-12-19T10:51:28.952Z,12.97
2017-12-19T10:53:56.490Z,13.90
2017-12-19T10:56:24.105Z,13.87
2017-12-19T10:58:51.642Z,12.70
2017-12-19T11:01:19.606Z,13.63
2017-12-19T11:03:47.171Z,12.80
2017-12-19T11:06:14.730Z,13.57
2017-12-19T11:08:42.336Z,14.10
2017-12-19T11:11:09.878Z,13.50
2017-12-19T11:13:37.464Z,13.70
2017-12-19T11:16:05.010Z,14.20
2017-12-19T11:18:32.560Z,14.63
2017-12-19T11:21:00.119Z,12.93
2017-12-19T11:23:27.649Z,13.33
2017-12-19T11:25:55.205Z,13.47
2017-12-19T11:28:22.766Z,12.13
2017-12-19T11:30:50.338Z,12.47
2017-12-19T11:33:17.875Z,12.37
2017-12-19T11:35:45.408Z,12.20
2017-12-19T11:38:12.954Z,12.60
2017-12-19T11:40:40.538Z,12.43
2017-12-19T11:43:08.133Z,13.50
2017-12-19T11:45:35.708Z,13.30
2017-12-19T11:48:03.308Z,14.07
2017-12-19T11:50:30.876Z,14.40
2017-12-19T11:52:58.445Z,15.17
2017-12-19T11:55:26.012Z,16.83
2017-12-19T11:57:53.576Z,17.40
2017-12-19T12:00:21.472Z,16.43
2017-12-19T12:02:49.008Z,18.57
2017-12-19T12:05:16.551Z,17.20
2017-12-19T12:07:44.136Z,18.53
2017-12-19T12:10:11.696Z,16.93
2017-12-19T12:12:39.296Z,18.90
2017-12-19T12:15:06.848Z,18.70
2017-12-19T12:17:34.420Z,19.00
2017-12-19T12:20:01.996Z,19.23
2017-12-19T12:22:29.549Z,20.50
2017-12-19T12:24:57.102Z,20.53
2017-12-19T12:27:24.637Z,19.70
2017-12-19T12:29:52.447Z,19.83
2017-12-19T12:32:20.013Z,19.00
2017-12-19T12:34:47.568Z,19.20
2017-12-19T12:37:15.172Z,20.17
2017-12-19T12:39:42.777Z,16.37
2017-12-19T12:42:10.347Z,17.43
2017-12-19T12:44:37.917Z,16.97
2017-12-19T12:47:05.783Z,17.73
2017-12-19T12:49:33.323Z,17.50
2017-12-19T12:52:00.844Z,18.60
2017-12-19T12:54:28.424Z,18.20
2017-12-19T12:56:55.962Z,20.53
2017-12-19T12:59:23.529Z,19.60
2017-12-19T13:01:51.094Z,20.03
2017-12-19T13:04:18.696Z,18.50
2017-12-19T13:06:46.282Z,19.60
2017-12-19T13:09:13.799Z,19.80
2017-12-19T13:11:41.419Z,19.67
2017-12-19T13:14:08.971Z,19.27
2017-12-19T13:16:36.530Z,19.57
2017-12-19T13:19:04.071Z,20.73
2017-12-19T13:21:31.610Z,21.57
2017-12-19T13:23:59.174Z,22.07
2017-12-19T13:26:26.787Z,21.20
2017-12-19T13:28:54.653Z,21.53
2017-12-19T13:31:22.208Z,22.03
2017-12-19T13:33:49.772Z,20.53
2017-12-19T13:36:17.405Z,21.53
2017-12-19T13:38:44.970Z,21.93
2017-12-19T13:41:12.961Z,20.00
2017-12-19T13:43:40.495Z,20.80
2017-12-19T13:46:08.036Z,21.47
2017-12-19T13:48:35.617Z,22.23
2017-12-19T13:51:03.163Z,22.33
2017-12-19T13:53:31.235Z,22.37
2017-12-19T13:55:58.798Z,22.47
2017-12-19T13:58:26.372Z,24.43
2017-12-19T14:00:53.984Z,23.50
2017-12-19T14:03:21.562Z,23.17
2017-12-19T14:05:49.159Z,23.63
2017-12-19T14:08:16.722Z,24.00
2017-12-19T14:10:44.312Z,21.33
2017-12-19T14:13:21.573Z,22.73
2017-12-19T14:15:49.148Z,19.83
2017-12-19T14:18:16.701Z,20.00
2017-12-19T14:20:44.239Z,22.70
2017-12-19T14:23:11.857Z,21.27
2017-12-19T14:25:39.412Z,20.00
2017-12-19T14:28:06.996Z,21.00
2017-12-19T14:30:34.616Z,21.53
2017-12-19T14:33:02.215Z,22.00
2017-12-19T14:35:29.781Z,20.70
2017-12-19T14:37:57.348Z,21.70
2017-12-19T14:40:24.916Z,21.43
2017-12-19T14:42:52.464Z,22.00
2017-12-19T14:45:20.029Z,20.63
2017-12-19T14:47:47.571Z,22.17
2017-12-19T14:50:15.162Z,22.30
2017-12-19T14:52:42.735Z,21.90
2017-12-19T14:55:10.295Z,23.30
2017-12-19T14:57:37.856Z,20.40
2017-12-19T15:00:05.465Z,22.03
2017-12-19T15:02:33.051Z,23.87
2017-12-19T15:05:00.632Z,24.50
2017-12-19T15:07:28.486Z,23.87
2017-12-19T15:09:56.055Z,22.60
2017-12-19T15:12:23.612Z,23.10
2017-12-19T15:14:51.189Z,22.40
2017-12-19T15:17:18.724Z,21.90
2017-12-19T15:19:46.682Z,22.63
2017-12-19T15:22:14.231Z,23.00
2017-12-19T15:24:41.802Z,22.43
2017-12-19T15:27:09.433Z,21.87
2017-12-19T15:29:37.000Z,21.30
2017-12-19T15:32:04.597Z,22.10
2017-12-19T15:34:32.182Z,21.63
2017-12-19T15:36:59.857Z,22.00
2017-12-19T15:39:27.448Z,23.13
2017-12-19T15:41:55.021Z,21.87
2017-12-19T15:44:22.632Z,24.50
2017-12-19T15:46:50.192Z,23.60
2017-12-19T15:49:17.798Z,22.70
2017-12-19T15:51:45.398Z,23.27
2017-12-19T15:54:13.004Z,23.00
2017-12-19T15:56:40.572Z,22.07
2017-12-19T15:59:08.156Z,24.03
2017-12-19T16:01:35.762Z,24.30
2017-12-19T16:04:03.329Z,23.23
2017-12-19T16:06:31.365Z,21.63
2017-12-19T16:08:58.984Z,23.50
2017-12-19T16:11:26.577Z,21.53
2017-12-19T16:13:54.176Z,24.43
2017-12-19T16:16:21.717Z,22.00
2017-12-19T16:18:49.356Z,22.73
2017-12-19T16:21:16.928Z,22.70
2017-12-19T16:23:44.511Z,23.37
2017-12-19T16:26:12.105Z,23.70
2017-12-19T16:28:39.724Z,23.83
2017-12-19T16:31:07.344Z,21.83
2017-12-19T16:33:34.943Z,24.33
2017-12-19T16:36:02.504Z,24.50
2017-12-19T16:38:30.081Z,24.20
2017-12-19T16:40:57.689Z,24.83
2017-12-19T16:43:25.282Z,23.40
2017-12-19T16:45:52.839Z,21.80
2017-12-19T16:48:20.446Z,22.67
2017-12-19T16:50:48.029Z,22.17
2017-12-19T16:53:15.584Z,24.07
2017-12-19T16:55:43.151Z,24.23
2017-12-19T16:58:10.708Z,24.00
2017-12-19T17:00:38.319Z,23.62
2017-12-19T17:03:05.866Z,25.20
2017-12-19T17:05:33.464Z,25.40
2017-12-19T17:08:01.053Z,24.90
2017-12-19T17:10:28.617Z,25.20
2017-12-19T17:12:56.248Z,28.02
2017-12-19T17:15:23.858Z,26.67
2017-12-19T17:17:51.435Z,22.60
2017-12-19T17:20:19.030Z,24.70
2017-12-19T17:22:46.618Z,24.10
2017-12-19T17:25:14.212Z,24.77
2017-12-19T17:27:41.776Z,25.20
2017-12-19T17:30:09.332Z,26.20
2017-12-19T17:32:36.940Z,24.00
2017-12-19T17:35:04.558Z,24.17
2017-12-19T17:37:32.133Z,25.20
2017-12-19T17:39:59.689Z,23.20
2017-12-19T17:42:27.276Z,22.53
2017-12-19T17:44:54.839Z,24.37
2017-12-19T17:47:22.433Z,23.47
2017-12-19T17:49:50.044Z,22.77
2017-12-19T17:52:17.636Z,21.93
2017-12-19T17:54:45.282Z,23.50
2017-12-19T17:57:12.859Z,23.13
2017-12-19T17:59:40.452Z,22.27
2017-12-19T18:02:08.024Z,24.23
2017-12-19T18:04:35.588Z,23.23
2017-12-19T18:07:03.166Z,23.43
2017-12-19T18:09:30.736Z,22.00
2017-12-19T18:11:58.335Z,23.40
2017-12-19T18:14:25.926Z,23.10
2017-12-19T18:16:53.526Z,22.60
2017-12-19T18:19:21.113Z,22.27
2017-12-19T18:21:48.691Z,23.70
2017-12-19T18:24:16.307Z,23.23
2017-12-19T18:26:43.932Z,22.70
2017-12-19T18:29:11.545Z,22.07
2017-12-19T18:31:39.168Z,24.00
2017-12-19T18:34:06.725Z,23.03
2017-12-19T18:36:34.364Z,27.40
2017-12-19T18:39:01.971Z,24.33
2017-12-19T18:41:29.551Z,25.17
2017-12-19T18:43:57.125Z,25.27
2017-12-19T18:46:24.722Z,21.00
2017-12-19T18:48:52.277Z,22.03
2017-12-19T18:51:19.844Z,21.57
2017-12-19T18:53:47.408Z,23.43
2017-12-19T18:56:14.971Z,23.93
2017-12-19T18:58:42.588Z,23.33
2017-12-19T19:01:10.187Z,22.47
2017-12-19T19:03:37.834Z,20.47
2017-12-19T19:06:05.391Z,22.07
2017-12-19T19:08:32.901Z,20.50
2017-12-19T19:11:00.522Z,22.27
2017-12-19T19:13:28.134Z,21.17
2017-12-19T19:15:55.817Z,20.93
2017-12-19T19:18:23.437Z,21.63
2017-12-19T19:20:51.038Z,21.47
2017-12-19T19:23:18.645Z,20.93
2017-12-19T19:25:46.214Z,22.60
2017-12-19T19:28:13.812Z,21.47
2017-12-19T19:32:41.232Z,21.67
2017-12-19T19:35:14.957Z,22.47
2017-12-19T19:37:50.096Z,21.40
2017-12-19T19:40:23.367Z,21.73
2017-12-19T19:43:01.576Z,20.77
2017-12-19T19:45:34.786Z,20.20
2017-12-19T19:50:46.079Z,20.10
2017-12-19T19:53:25.626Z,20.00
2017-12-19T19:55:57.580Z,20.23
2017-12-19T19:58:33.540Z,20.00
2017-12-19T20:01:09.195Z,21.53
2017-12-19T20:03:43.505Z,20.50
2017-12-19T20:06:23.875Z,19.20
2017-12-19T20:09:00.293Z,19.33
2017-12-19T20:11:33.853Z,20.60
2017-12-19T20:14:06.943Z,20.83
2017-12-19T20:16:43.375Z,18.97
2017-12-19T20:19:18.003Z,21.03
2017-12-19T20:24:38.964Z,20.70
2017-12-19T20:27:13.816Z,19.50
2017-12-19T20:29:52.727Z,18.53
2017-12-19T20:32:27.696Z,18.97
2017-12-19T20:35:01.697Z,19.03
2017-12-19T20:37:36.024Z,17.63
2017-12-19T20:40:14.517Z,18.10
2017-12-19T20:42:49.649Z,18.03
2017-12-19T20:45:28.491Z,18.33
2017-12-19T20:48:09.157Z,18.70
2017-12-19T20:50:51.721Z,18.60
2017-12-19T20:53:25.472Z,20.00
2017-12-19T20:56:00.911Z,20.53
2017-12-19T20:58:41.266Z,18.70
2017-12-19T21:01:14.443Z,20.43
2017-12-19T21:03:49.921Z,20.20
2017-12-19T21:06:25.775Z,20.83
2017-12-19T21:08:57.097Z,19.50
2017-12-19T21:11:36.835Z,19.67
2017-12-19T21:14:12.585Z,21.40
2017-12-19T21:16:46.644Z,20.87
2017-12-19T21:19:25.772Z,20.70
2017-12-19T21:22:00.043Z,20.67
2017-12-19T21:24:34.928Z,21.23
2017-12-19T21:29:49.746Z,20.30
2017-12-19T21:32:28.352Z,21.60
2017-12-19T21:35:00.886Z,21.80
2017-12-19T21:37:32.261Z,19.50
2017-12-19T21:40:05.164Z,20.80
2017-12-19T21:42:39.220Z,20.17
2017-12-19T21:45:14.415Z,20.43
2017-12-19T21:47:45.864Z,20.83
2017-12-19T21:50:20.377Z,20.10
2017-12-19T21:52:52.671Z,19.60
2017-12-19T21:55:26.260Z,19.30
2017-12-19T21:57:58.428Z,19.73
2017-12-19T22:00:32.349Z,19.17
2017-12-19T22:03:06.142Z,19.60
2017-12-19T22:05:39.445Z,18.97
2017-12-19T22:08:14.379Z,18.70
2017-12-19T22:10:46.439Z,16.80
2017-12-19T22:13:22.900Z,16.50
2017-12-19T22:16:05.528Z,16.90
2017-12-19T22:18:37.192Z,17.23
2017-12-19T22:21:09.426Z,15.73
2017-12-19T22:23:46.233Z,15.13
2017-12-19T22:26:21.352Z,15.80
2017-12-19T22:28:56.181Z,15.87
2017-12-19T22:31:36.877Z,15.87
2017-12-19T22:34:10.234Z,14.40
2017-12-19T22:36:43.112Z,15.83
2017-12-19T22:39:15.280Z,16.83
2017-12-19T22:41:54.300Z,15.60
2017-12-19T22:44:29.092Z,16.40
2017-12-19T22:47:16.212Z,16.40
2017-12-19T22:49:49.127Z,16.27
2017-12-19T22:52:21.270Z,16.17
2017-12-19T22:54:56.410Z,16.80
2017-12-19T22:57:30.235Z,15.63
2017-12-19T23:00:07.213Z,15.83
2017-12-19T23:02:39.470Z,17.37
2017-12-19T23:05:12.878Z,16.60
2017-12-19T23:07:43.716Z,17.10
2017-12-19T23:10:19.261Z,16.67
2017-12-19T23:12:51.943Z,16.90
2017-12-19T23:15:32.814Z,16.47
2017-12-19T23:18:09.478Z,17.57
2017-12-19T23:20:44.422Z,16.87
2017-12-19T23:23:21.100Z,18.23
2017-12-19T23:25:53.164Z,16.63
2017-12-19T23:28:37.404Z,17.50
2017-12-19T23:31:13.648Z,17.20
2017-12-19T23:33:50.129Z,16.87
2017-12-19T23:36:30.069Z,18.17
2017-12-19T23:39:08.784Z,18.57
2017-12-19T23:41:45.149Z,17.77
2017-12-19T23:44:22.390Z,16.93
2017-12-19T23:46:58.114Z,17.03
2017-12-19T23:49:32.496Z,16.37
2017-12-19T23:52:05.586Z,18.00
2017-12-19T23:54:39.770Z,17.47
2017-12-19T23:57:16.480Z,17.53
